createdAt,value
2022-12-18T00:00:17.764Z,12.88
2022-12-18T00:01:23.847Z,12.93
2022-12-18T00:02:25.781Z,12.92
2022-12-18T00:03:27.658Z,12.92
2022-12-18T00:04:29.558Z,12.91
2022-12-18T00:05:31.405Z,12.91
2022-12-18T00:06:34.598Z,12.90
2022-12-18T00:07:36.695Z,12.88
2022-12-18T00:08:39.577Z,12.83
2022-12-18T00:09:41.340Z,12.87
2022-12-18T00:10:43.166Z,12.86
2022-12-18T00:11:44.992Z,12.77
2022-12-18T00:12:46.809Z,12.84
2022-12-18T00:13:49.329Z,12.84
2022-12-18T00:14:51.117Z,12.85
2022-12-18T00:15:52.921Z,12.83
2022-12-18T00:17:01.614Z,12.77
2022-12-18T00:18:03.580Z,12.84
2022-12-18T00:19:05.808Z,12.82
2022-12-18T00:20:08.412Z,12.80
2022-12-18T00:21:12.175Z,12.80
2022-12-18T00:22:14.053Z,12.79
2022-12-18T00:23:18.916Z,12.79
2022-12-18T00:24:20.774Z,12.78
2022-12-18T00:25:22.929Z,12.74
2022-12-18T00:26:27.114Z,12.76
2022-12-18T00:27:32.475Z,12.78
2022-12-18T00:28:35.265Z,12.76
2022-12-18T00:29:37.080Z,12.75
2022-12-18T00:30:41.714Z,12.76
2022-12-18T00:31:44.390Z,12.75
2022-12-18T00:32:46.201Z,12.70
2022-12-18T00:33:50.014Z,12.73
2022-12-18T00:34:55.927Z,12.74
2022-12-18T00:36:04.473Z,12.74
2022-12-18T00:37:07.595Z,12.64
2022-12-18T00:38:09.345Z,12.67
2022-12-18T00:39:12.525Z,12.64
2022-12-18T00:40:14.344Z,12.64
2022-12-18T00:41:37.967Z,12.71
2022-12-18T00:42:58.254Z,12.76
2022-12-18T00:44:00.168Z,12.70
2022-12-18T00:45:01.978Z,12.75
2022-12-18T00:46:04.141Z,12.72
2022-12-18T00:47:07.312Z,12.70
2022-12-18T00:48:09.190Z,12.62
2022-12-18T00:49:11.341Z,12.65
2022-12-18T00:50:16.166Z,12.61
2022-12-18T00:51:18.122Z,12.67
2022-12-18T00:52:19.930Z,12.60
2022-12-18T00:53:21.920Z,12.66
2022-12-18T00:54:23.920Z,12.62
2022-12-18T00:55:25.767Z,12.66
2022-12-18T00:56:27.744Z,12.64
2022-12-18T00:57:30.020Z,12.44
2022-12-18T00:58:32.016Z,12.65
2022-12-18T00:59:39.868Z,12.65
2022-12-18T01:00:42.022Z,12.64
2022-12-18T01:01:47.938Z,12.65
2022-12-18T01:02:50.571Z,12.65
2022-12-18T01:03:52.680Z,12.52
2022-12-18T01:04:55.467Z,12.64
2022-12-18T01:05:57.710Z,12.64
2022-12-18T01:06:59.639Z,12.64
2022-12-18T01:08:02.810Z,12.63
2022-12-18T01:09:04.862Z,12.62
2022-12-18T01:10:08.694Z,12.62
2022-12-18T01:11:18.043Z,12.62
2022-12-18T01:12:20.043Z,12.63
2022-12-18T01:13:21.833Z,12.62
2022-12-18T01:14:25.696Z,12.61
2022-12-18T01:15:28.467Z,12.63
2022-12-18T01:16:30.281Z,12.61
2022-12-18T01:17:32.248Z,12.62
2022-12-18T01:18:36.681Z,12.62
2022-12-18T01:19:38.440Z,12.61
2022-12-18T01:20:40.292Z,12.61
2022-12-18T01:21:42.134Z,12.61
2022-12-18T01:22:43.968Z,12.35
2022-12-18T01:23:46.097Z,12.61
2022-12-18T01:24:47.891Z,12.61
2022-12-18T01:25:49.800Z,12.61
2022-12-18T01:26:51.640Z,12.61
2022-12-18T01:27:53.436Z,12.60
2022-12-18T01:28:58.757Z,12.60
2022-12-18T01:30:00.525Z,12.61
2022-12-18T01:31:19.860Z,12.64
2022-12-18T01:32:23.034Z,12.65
2022-12-18T01:33:25.527Z,12.62
2022-12-18T01:34:27.335Z,12.61
2022-12-18T01:35:29.488Z,12.62
2022-12-18T01:36:37.428Z,12.60
2022-12-18T01:37:39.169Z,12.61
2022-12-18T01:38:41.015Z,12.60
2022-12-18T01:39:42.856Z,12.61
2022-12-18T01:40:44.621Z,12.59
2022-12-18T01:42:02.890Z,12.58
2022-12-18T01:43:10.304Z,12.63
2022-12-18T01:45:06.278Z,12.66
2022-12-18T01:46:08.115Z,12.73
2022-12-18T01:47:10.472Z,12.70
2022-12-18T01:48:12.257Z,12.67
2022-12-18T01:49:14.133Z,12.63
2022-12-18T01:50:39.082Z,12.61
2022-12-18T01:51:41.558Z,12.68
2022-12-18T01:52:47.904Z,12.64
2022-12-18T01:53:50.322Z,12.63
2022-12-18T01:54:53.304Z,12.63
2022-12-18T01:55:58.580Z,12.61
2022-12-18T01:57:01.954Z,12.56
2022-12-18T01:58:04.663Z,12.60
2022-12-18T01:59:11.108Z,12.61
2022-12-18T02:00:17.753Z,12.61
2022-12-18T02:01:22.942Z,12.62
2022-12-18T02:02:25.054Z,12.62
2022-12-18T02:03:27.612Z,12.62
2022-12-18T02:04:29.801Z,12.60
2022-12-18T02:05:34.372Z,12.61
2022-12-18T02:06:42.390Z,12.59
2022-12-18T02:08:17.134Z,12.62
2022-12-18T02:09:29.033Z,12.69
2022-12-18T02:10:43.175Z,12.68
2022-12-18T02:12:00.770Z,12.66
2022-12-18T02:13:14.619Z,12.68
2022-12-18T02:14:37.533Z,12.70
2022-12-18T02:15:51.529Z,12.69
2022-12-18T02:17:06.185Z,12.67
2022-12-18T02:18:22.227Z,12.67
2022-12-18T02:19:58.392Z,12.69
2022-12-18T02:21:29.990Z,12.73
2022-12-18T02:22:47.271Z,12.73
2022-12-18T02:24:01.262Z,12.62
2022-12-18T02:25:12.147Z,12.69
2022-12-18T02:26:21.802Z,12.67
2022-12-18T02:27:28.324Z,12.65
2022-12-18T02:28:34.480Z,12.63
2022-12-18T02:29:57.583Z,12.64
2022-12-18T02:31:05.686Z,12.65
2022-12-18T02:32:13.283Z,12.64
2022-12-18T02:33:16.344Z,12.62
2022-12-18T02:34:22.151Z,12.42
2022-12-18T02:35:30.941Z,12.62
2022-12-18T02:36:39.305Z,12.63
2022-12-18T02:37:45.344Z,12.56
2022-12-18T02:38:48.184Z,12.62
2022-12-18T02:39:54.161Z,12.61
2022-12-18T02:40:57.939Z,12.63
2022-12-18T02:42:03.437Z,12.61
2022-12-18T02:43:13.314Z,12.62
2022-12-18T02:44:15.643Z,12.64
2022-12-18T02:45:18.714Z,12.58
2022-12-18T02:46:29.948Z,12.61
2022-12-18T02:47:37.953Z,12.64
2022-12-18T02:48:41.069Z,12.65
2022-12-18T02:49:58.750Z,12.66
2022-12-18T02:51:25.412Z,12.69
2022-12-18T02:52:46.664Z,12.72
2022-12-18T02:53:59.269Z,12.72
2022-12-18T02:55:18.865Z,12.69
2022-12-18T02:56:47.536Z,12.73
2022-12-18T02:58:06.425Z,12.73
2022-12-18T02:59:20.469Z,12.73
2022-12-18T03:00:36.944Z,12.67
2022-12-18T03:01:58.890Z,12.73
2022-12-18T03:03:08.786Z,12.60
2022-12-18T03:04:22.412Z,12.72
2022-12-18T03:05:32.416Z,12.69
2022-12-18T03:06:40.851Z,12.69
2022-12-18T03:07:54.225Z,12.62
2022-12-18T03:09:07.109Z,12.71
2022-12-18T03:10:15.467Z,12.69
2022-12-18T03:11:37.555Z,12.69
2022-12-18T03:12:50.611Z,12.72
2022-12-18T03:13:58.260Z,12.57
2022-12-18T03:15:17.495Z,12.73
2022-12-18T03:16:30.280Z,12.73
2022-12-18T03:17:34.617Z,12.69
2022-12-18T03:18:38.632Z,12.65
2022-12-18T03:19:42.475Z,12.68
2022-12-18T03:20:47.527Z,12.66
2022-12-18T03:21:57.294Z,12.68
2022-12-18T03:23:12.566Z,12.65
2022-12-18T03:24:16.534Z,12.68
2022-12-18T03:25:21.322Z,12.69
2022-12-18T03:26:28.134Z,12.66
2022-12-18T03:27:37.793Z,12.62
2022-12-18T03:28:51.976Z,12.63
2022-12-18T03:30:13.284Z,12.69
2022-12-18T03:31:17.668Z,12.72
2022-12-18T03:32:30.217Z,12.70
2022-12-18T03:33:47.486Z,12.58
2022-12-18T03:34:53.734Z,12.72
2022-12-18T03:35:58.046Z,12.72
2022-12-18T03:36:59.908Z,12.68
2022-12-18T03:38:07.674Z,12.68
2022-12-18T03:39:11.923Z,12.60
2022-12-18T03:40:15.206Z,12.68
2022-12-18T03:41:20.981Z,12.60
2022-12-18T03:42:52.641Z,12.71
2022-12-18T03:43:57.777Z,12.74
2022-12-18T03:45:10.218Z,12.69
2022-12-18T03:46:55.264Z,12.76
2022-12-18T03:48:30.928Z,12.85
2022-12-18T03:49:46.629Z,12.75
2022-12-18T03:51:07.069Z,12.81
2022-12-18T03:52:21.660Z,12.78
2022-12-18T03:53:32.717Z,12.78
2022-12-18T03:54:36.758Z,12.77
2022-12-18T03:55:49.591Z,12.74
2022-12-18T03:56:59.329Z,12.74
2022-12-18T03:58:04.700Z,12.73
2022-12-18T03:59:18.622Z,12.75
2022-12-18T04:00:21.516Z,12.67
2022-12-18T04:01:41.715Z,12.75
2022-12-18T04:02:51.714Z,12.74
2022-12-18T04:04:01.809Z,12.71
2022-12-18T04:05:09.242Z,12.73
2022-12-18T04:06:15.938Z,12.74
2022-12-18T04:07:20.015Z,12.74
2022-12-18T04:08:22.994Z,12.71
2022-12-18T04:09:37.104Z,12.75
2022-12-18T04:10:39.356Z,12.74
2022-12-18T04:11:44.825Z,12.70
2022-12-18T04:12:49.060Z,12.72
2022-12-18T04:13:51.417Z,12.68
2022-12-18T04:14:57.553Z,12.73
2022-12-18T04:16:00.096Z,12.73
2022-12-18T04:17:03.749Z,12.72
2022-12-18T04:18:09.072Z,12.72
2022-12-18T04:19:15.049Z,12.71
2022-12-18T04:20:19.694Z,12.74
2022-12-18T04:21:22.510Z,12.74
2022-12-18T04:22:25.406Z,12.74
2022-12-18T04:23:33.042Z,12.74
2022-12-18T04:24:34.965Z,12.75
2022-12-18T04:25:48.204Z,12.77
2022-12-18T04:26:56.195Z,12.78
2022-12-18T04:28:01.480Z,12.74
2022-12-18T04:29:03.943Z,12.76
2022-12-18T04:30:06.720Z,12.76
2022-12-18T04:31:08.810Z,12.73
2022-12-18T04:32:10.930Z,12.68
2022-12-18T04:33:19.537Z,12.75
2022-12-18T04:34:22.066Z,12.74
2022-12-18T04:35:27.601Z,12.77
2022-12-18T04:36:30.164Z,12.76
2022-12-18T04:37:32.075Z,12.77
2022-12-18T04:38:35.243Z,12.74
2022-12-18T04:39:42.566Z,12.79
2022-12-18T04:40:53.723Z,12.79
2022-12-18T04:42:00.692Z,12.79
2022-12-18T04:43:03.415Z,12.80
2022-12-18T04:44:05.665Z,12.78
2022-12-18T04:45:08.500Z,12.78
2022-12-18T04:46:10.756Z,12.76
2022-12-18T04:47:12.642Z,12.79
2022-12-18T04:48:14.525Z,12.78
2022-12-18T04:49:16.361Z,12.79
2022-12-18T04:50:18.301Z,12.79
2022-12-18T04:51:26.104Z,12.79
2022-12-18T04:52:28.746Z,12.82
2022-12-18T04:53:34.225Z,12.82
2022-12-18T04:54:36.124Z,12.82
2022-12-18T04:55:37.996Z,12.59
2022-12-18T04:56:40.917Z,12.81
2022-12-18T04:57:42.682Z,12.81
2022-12-18T04:58:45.909Z,12.81
2022-12-18T04:59:47.687Z,12.75
2022-12-18T05:00:49.441Z,12.82
2022-12-18T05:01:51.276Z,12.81
2022-12-18T05:02:53.285Z,12.82
2022-12-18T05:03:55.379Z,12.82
2022-12-18T05:04:57.319Z,12.73
2022-12-18T05:05:59.139Z,12.75
2022-12-18T05:07:00.893Z,12.80
2022-12-18T05:08:02.815Z,12.83
2022-12-18T05:09:05.225Z,12.84
2022-12-18T05:10:08.428Z,12.85
2022-12-18T05:11:16.804Z,12.76
2022-12-18T05:12:18.786Z,12.87
2022-12-18T05:13:20.566Z,12.86
2022-12-18T05:14:22.320Z,12.86
2022-12-18T05:15:24.272Z,12.85
2022-12-18T05:16:26.203Z,12.80
2022-12-18T05:17:28.109Z,12.87
2022-12-18T05:18:30.163Z,12.87
2022-12-18T05:19:32.013Z,12.87
2022-12-18T05:20:33.789Z,12.87
2022-12-18T05:21:35.825Z,12.83
2022-12-18T05:22:37.653Z,12.88
2022-12-18T05:23:39.688Z,12.79
2022-12-18T05:24:41.849Z,12.84
2022-12-18T05:25:50.387Z,12.88
2022-12-18T05:26:52.217Z,12.91
2022-12-18T05:27:54.057Z,12.91
2022-12-18T05:28:55.824Z,12.90
2022-12-18T05:29:57.684Z,12.87
2022-12-18T05:31:01.832Z,12.91
2022-12-18T05:32:03.860Z,12.93
2022-12-18T05:33:05.736Z,12.94
2022-12-18T05:34:08.061Z,12.93
2022-12-18T05:35:11.689Z,12.93
2022-12-18T05:36:13.564Z,12.94
2022-12-18T05:37:15.428Z,12.95
2022-12-18T05:38:17.179Z,12.95
2022-12-18T05:39:18.946Z,12.94
2022-12-18T05:40:20.740Z,12.89
2022-12-18T05:41:22.614Z,12.92
2022-12-18T05:42:24.961Z,12.96
2022-12-18T05:43:27.966Z,12.92
2022-12-18T05:44:29.734Z,12.97
2022-12-18T05:45:31.608Z,12.98
2022-12-18T05:46:33.652Z,12.97
2022-12-18T05:47:35.991Z,12.98
2022-12-18T05:48:37.824Z,12.98
2022-12-18T05:49:39.659Z,12.99
2022-12-18T05:50:43.968Z,12.99
2022-12-18T05:51:46.286Z,13.00
2022-12-18T05:52:48.069Z,12.95
2022-12-18T05:53:49.946Z,13.01
2022-12-18T05:54:51.764Z,13.00
2022-12-18T05:55:53.507Z,13.02
2022-12-18T05:56:55.473Z,13.00
2022-12-18T05:57:57.324Z,13.03
2022-12-18T05:58:59.152Z,13.03
2022-12-18T06:00:00.991Z,13.03
2022-12-18T06:01:20.469Z,13.05
2022-12-18T06:02:22.657Z,13.07
2022-12-18T06:03:29.285Z,13.06
2022-12-18T06:04:34.295Z,13.07
2022-12-18T06:05:38.292Z,13.06
2022-12-18T06:06:40.367Z,13.00
2022-12-18T06:07:42.238Z,13.06
2022-12-18T06:08:46.508Z,13.04
2022-12-18T06:09:48.853Z,13.06
2022-12-18T06:10:53.660Z,13.05
2022-12-18T06:11:55.482Z,13.07
2022-12-18T06:12:57.306Z,13.06
2022-12-18T06:13:59.607Z,13.06
2022-12-18T06:15:03.137Z,13.07
2022-12-18T06:16:09.212Z,13.06
2022-12-18T06:17:11.055Z,13.09
2022-12-18T06:18:13.026Z,13.08
2022-12-18T06:19:17.054Z,13.09
2022-12-18T06:20:19.254Z,13.03
2022-12-18T06:21:21.010Z,13.10
2022-12-18T06:22:23.104Z,13.10
2022-12-18T06:23:24.957Z,13.10
2022-12-18T06:24:26.796Z,13.10
2022-12-18T06:25:28.747Z,13.07
2022-12-18T06:26:30.524Z,13.09
2022-12-18T06:27:32.832Z,13.10
2022-12-18T06:28:34.847Z,13.10
2022-12-18T06:29:36.593Z,13.10
2022-12-18T06:30:38.438Z,13.11
2022-12-18T06:31:40.264Z,13.12
2022-12-18T06:32:42.130Z,13.12
2022-12-18T06:33:44.121Z,13.12
2022-12-18T06:34:45.910Z,13.10
2022-12-18T06:35:47.978Z,13.13
2022-12-18T06:36:49.813Z,13.12
2022-12-18T06:37:51.930Z,13.09
2022-12-18T06:38:54.218Z,13.09
2022-12-18T06:39:57.590Z,13.10
2022-12-18T06:40:59.368Z,13.13
2022-12-18T06:42:01.251Z,13.13
2022-12-18T06:43:03.190Z,13.15
2022-12-18T06:44:05.078Z,13.04
2022-12-18T06:45:07.390Z,13.08
2022-12-18T06:46:10.093Z,13.14
2022-12-18T06:47:12.061Z,13.08
2022-12-18T06:48:13.942Z,13.14
2022-12-18T06:49:17.025Z,13.15
2022-12-18T06:50:18.979Z,13.16
2022-12-18T06:51:22.772Z,13.14
2022-12-18T06:52:24.548Z,13.16
2022-12-18T06:53:26.545Z,13.14
2022-12-18T06:54:28.648Z,13.16
2022-12-18T06:55:30.469Z,13.17
2022-12-18T06:56:32.291Z,13.11
2022-12-18T06:57:34.313Z,13.16
2022-12-18T06:58:36.159Z,13.17
2022-12-18T06:59:37.930Z,13.17
2022-12-18T07:00:39.908Z,13.17
2022-12-18T07:01:42.071Z,13.18
2022-12-18T07:02:44.101Z,13.13
2022-12-18T07:03:46.353Z,13.19
2022-12-18T07:04:48.116Z,13.19
2022-12-18T07:05:52.529Z,13.20
2022-12-18T07:06:54.290Z,13.20
2022-12-18T07:07:56.392Z,13.21
2022-12-18T07:08:58.175Z,13.21
2022-12-18T07:10:00.034Z,13.23
2022-12-18T07:11:05.391Z,13.23
2022-12-18T07:12:07.925Z,13.27
2022-12-18T07:13:09.714Z,13.29
2022-12-18T07:14:11.517Z,13.33
2022-12-18T07:15:13.611Z,13.34
2022-12-18T07:16:24.372Z,13.37
2022-12-18T07:17:26.849Z,13.44
2022-12-18T07:18:28.593Z,13.46
2022-12-18T07:19:30.701Z,13.48
2022-12-18T07:20:32.991Z,13.53
2022-12-18T07:21:34.765Z,13.56
2022-12-18T07:22:36.525Z,13.58
2022-12-18T07:23:38.831Z,13.61
2022-12-18T07:24:40.817Z,13.63
2022-12-18T07:25:42.639Z,13.70
2022-12-18T07:26:47.074Z,13.74
2022-12-18T07:27:48.830Z,13.79
2022-12-18T07:28:51.451Z,13.83
2022-12-18T07:29:53.361Z,13.86
2022-12-18T07:30:55.120Z,13.91
2022-12-18T07:31:58.119Z,13.96
2022-12-18T07:32:59.989Z,13.76
2022-12-18T07:34:01.833Z,14.05
2022-12-18T07:35:03.929Z,14.09
2022-12-18T07:36:07.764Z,14.12
2022-12-18T07:37:09.575Z,14.16
2022-12-18T07:38:11.408Z,14.21
2022-12-18T07:39:13.310Z,14.23
2022-12-18T07:40:15.149Z,14.20
2022-12-18T07:41:17.790Z,14.30
2022-12-18T07:42:31.538Z,14.35
2022-12-18T07:43:33.932Z,14.39
2022-12-18T07:44:35.952Z,14.37
2022-12-18T07:45:37.775Z,14.44
2022-12-18T07:46:39.724Z,14.47
2022-12-18T07:47:42.307Z,14.49
2022-12-18T07:48:49.382Z,14.51
2022-12-18T07:49:52.093Z,14.49
2022-12-18T07:50:53.934Z,14.58
2022-12-18T07:51:57.193Z,14.60
2022-12-18T07:52:58.981Z,14.61
2022-12-18T07:54:00.860Z,14.58
2022-12-18T07:55:03.202Z,14.66
2022-12-18T07:58:52.058Z,14.80
2022-12-18T07:59:53.840Z,14.78
2022-12-18T08:01:02.851Z,14.72
2022-12-18T08:02:04.944Z,14.80
2022-12-18T08:03:08.747Z,14.79
2022-12-18T08:04:10.536Z,14.81
2022-12-18T08:05:12.342Z,14.81
2022-12-18T08:06:14.177Z,14.83
2022-12-18T08:07:15.990Z,14.80
2022-12-18T08:08:17.833Z,14.85
2022-12-18T08:09:19.685Z,14.76
2022-12-18T08:10:22.384Z,14.84
2022-12-18T08:11:25.566Z,14.87
2022-12-18T08:12:27.444Z,14.89
2022-12-18T08:13:29.773Z,14.91
2022-12-18T08:14:31.702Z,14.91
2022-12-18T08:15:33.488Z,14.91
2022-12-18T08:16:35.675Z,14.91
2022-12-18T08:17:37.776Z,14.93
2022-12-18T08:18:39.683Z,14.91
2022-12-18T08:19:41.565Z,14.94
2022-12-18T08:20:43.324Z,14.95
2022-12-18T08:21:45.263Z,14.94
2022-12-18T08:22:47.029Z,14.96
2022-12-18T08:23:49.762Z,14.96
2022-12-18T08:24:53.188Z,14.98
2022-12-18T08:25:55.004Z,14.98
2022-12-18T08:27:21.245Z,14.99
2022-12-18T08:28:19.928Z,15.05
2022-12-18T08:29:21.854Z,15.04
2022-12-18T08:30:23.629Z,14.98
2022-12-18T08:31:27.683Z,15.02
2022-12-18T08:32:29.622Z,15.02
2022-12-18T08:33:31.580Z,15.03
2022-12-18T08:34:33.408Z,15.02
2022-12-18T08:35:42.476Z,15.03
2022-12-18T08:36:47.346Z,14.96
2022-12-18T08:37:49.134Z,15.07
2022-12-18T08:38:51.568Z,15.00
2022-12-18T08:39:53.432Z,15.06
2022-12-18T08:41:02.685Z,15.01
2022-12-18T08:42:23.109Z,15.08
2022-12-18T08:43:43.752Z,15.11
2022-12-18T08:44:45.568Z,15.14
2022-12-18T08:45:47.500Z,15.12
2022-12-18T08:46:49.307Z,15.09
2022-12-18T08:47:51.092Z,15.09
2022-12-18T08:48:54.477Z,15.10
2022-12-18T08:49:56.306Z,15.11
2022-12-18T08:50:59.842Z,15.10
2022-12-18T08:52:02.542Z,15.07
2022-12-18T08:53:04.417Z,15.13
2022-12-18T08:54:07.170Z,15.12
2022-12-18T08:55:09.857Z,15.14
2022-12-18T08:56:12.119Z,15.12
2022-12-18T08:57:13.868Z,15.16
2022-12-18T08:58:15.786Z,15.17
2022-12-18T08:59:20.165Z,15.16
2022-12-18T09:00:22.797Z,15.20
2022-12-18T09:01:25.231Z,15.21
2022-12-18T09:02:27.257Z,15.22
2022-12-18T09:03:29.237Z,15.22
2022-12-18T09:04:31.073Z,15.23
2022-12-18T09:05:32.848Z,15.25
2022-12-18T09:06:34.685Z,15.26
2022-12-18T09:07:36.693Z,15.26
2022-12-18T09:08:38.703Z,15.28
2022-12-18T09:09:40.942Z,15.28
2022-12-18T09:10:47.084Z,15.30
2022-12-18T09:11:48.875Z,15.32
2022-12-18T09:12:50.696Z,15.33
2022-12-18T09:13:53.725Z,15.31
2022-12-18T09:14:55.600Z,15.34
2022-12-18T09:15:57.396Z,15.35
2022-12-18T09:16:59.316Z,15.37
2022-12-18T09:18:01.206Z,15.34
2022-12-18T09:19:05.109Z,15.36
2022-12-18T09:20:07.483Z,15.34
2022-12-18T09:21:11.154Z,15.38
2022-12-18T09:22:13.114Z,15.36
2022-12-18T09:23:15.518Z,15.43
2022-12-18T09:24:17.841Z,15.36
2022-12-18T09:25:19.760Z,15.21
2022-12-18T09:26:23.169Z,15.45
2022-12-18T09:27:24.968Z,15.45
2022-12-18T09:28:27.217Z,15.47
2022-12-18T09:29:29.617Z,15.46
2022-12-18T09:30:34.259Z,15.50
2022-12-18T09:31:37.850Z,15.50
2022-12-18T09:32:39.635Z,15.52
2022-12-18T09:33:41.790Z,15.52
2022-12-18T09:34:43.562Z,15.46
2022-12-18T09:35:46.715Z,15.52
2022-12-18T09:36:49.240Z,15.53
2022-12-18T09:37:51.742Z,15.34
2022-12-18T09:38:54.285Z,15.54
2022-12-18T09:39:56.144Z,15.55
2022-12-18T09:41:16.366Z,15.57
2022-12-18T09:42:26.984Z,15.60
2022-12-18T09:43:44.197Z,15.61
2022-12-18T09:44:52.312Z,15.64
2022-12-18T09:46:04.222Z,15.64
2022-12-18T09:47:24.050Z,15.66
2022-12-18T09:48:36.024Z,15.66
2022-12-18T09:49:43.729Z,15.64
2022-12-18T09:50:47.549Z,15.64
2022-12-18T09:52:31.160Z,15.70
2022-12-18T09:53:38.599Z,15.68
2022-12-18T09:54:46.642Z,15.67
2022-12-18T09:55:49.985Z,15.64
2022-12-18T09:56:51.826Z,15.59
2022-12-18T09:58:02.469Z,15.59
2022-12-18T09:59:06.018Z,15.60
2022-12-18T10:00:19.702Z,15.60
2022-12-18T10:01:24.343Z,15.54
2022-12-18T10:02:27.940Z,15.56
2022-12-18T10:03:29.842Z,15.56
2022-12-18T10:04:33.039Z,15.32
2022-12-18T10:05:38.785Z,15.57
2022-12-18T10:06:58.210Z,15.58
2022-12-18T10:08:06.290Z,15.62
2022-12-18T10:09:21.705Z,15.60
2022-12-18T10:10:53.987Z,15.67
2022-12-18T10:12:12.578Z,15.62
2022-12-18T10:13:27.421Z,15.65
2022-12-18T10:14:49.989Z,15.66
2022-12-18T10:16:06.870Z,15.65
2022-12-18T10:17:39.341Z,15.66
2022-12-18T10:18:41.332Z,15.66
2022-12-18T10:19:59.709Z,15.61
2022-12-18T10:21:11.205Z,15.60
2022-12-18T10:22:22.325Z,15.59
2022-12-18T10:23:34.696Z,15.58
2022-12-18T10:25:16.558Z,15.60
2022-12-18T10:26:18.717Z,15.64
2022-12-18T10:27:27.342Z,15.59
2022-12-18T10:28:31.685Z,15.56
2022-12-18T10:29:33.542Z,15.55
2022-12-18T10:30:35.357Z,15.47
2022-12-18T10:31:37.318Z,15.51
2022-12-18T10:32:39.318Z,15.43
2022-12-18T10:33:42.316Z,15.51
2022-12-18T10:34:49.368Z,15.50
2022-12-18T10:35:52.253Z,15.51
2022-12-18T10:36:55.016Z,15.50
2022-12-18T10:38:12.907Z,15.45
2022-12-18T10:39:19.997Z,15.53
2022-12-18T10:40:22.724Z,15.52
2022-12-18T10:41:27.809Z,15.43
2022-12-18T10:42:31.382Z,15.47
2022-12-18T10:43:38.239Z,15.48
2022-12-18T10:44:40.094Z,15.45
2022-12-18T10:45:43.263Z,15.50
2022-12-18T10:46:50.311Z,15.50
2022-12-18T10:47:52.248Z,15.45
2022-12-18T10:48:56.625Z,15.50
2022-12-18T10:49:58.455Z,15.47
2022-12-18T10:51:10.773Z,15.51
2022-12-18T10:52:21.997Z,15.53
2022-12-18T10:53:30.799Z,15.55
2022-12-18T10:54:34.833Z,15.54
2022-12-18T10:55:45.115Z,15.50
2022-12-18T10:56:47.033Z,15.50
2022-12-18T10:57:48.833Z,15.54
2022-12-18T10:58:59.593Z,15.54
2022-12-18T11:00:22.349Z,15.58
2022-12-18T11:01:24.248Z,15.60
2022-12-18T11:02:44.240Z,15.60
2022-12-18T11:04:02.429Z,15.61
2022-12-18T11:05:34.315Z,15.65
2022-12-18T11:06:58.035Z,15.66
2022-12-18T11:08:01.449Z,15.66
2022-12-18T11:09:23.957Z,15.63
2022-12-18T11:10:34.477Z,15.64
2022-12-18T11:11:36.802Z,15.64
2022-12-18T11:12:38.726Z,15.63
2022-12-18T11:13:41.435Z,15.59
2022-12-18T11:14:49.532Z,15.59
2022-12-18T11:15:52.162Z,15.56
2022-12-18T11:17:24.897Z,15.60
2022-12-18T11:18:28.077Z,15.65
2022-12-18T11:19:34.925Z,15.65
2022-12-18T11:20:37.660Z,15.65
2022-12-18T11:21:43.714Z,15.59
2022-12-18T11:22:56.909Z,15.64
2022-12-18T11:23:58.998Z,15.66
2022-12-18T11:25:33.118Z,15.65
2022-12-18T11:26:37.205Z,15.72
2022-12-18T11:27:41.062Z,15.66
2022-12-18T11:29:09.449Z,15.69
2022-12-18T11:30:32.980Z,15.75
2022-12-18T11:31:34.917Z,15.70
2022-12-18T11:32:48.179Z,15.71
2022-12-18T11:35:51.610Z,15.78
2022-12-18T11:36:53.675Z,15.78
2022-12-18T11:38:03.904Z,15.73
2022-12-18T11:39:24.098Z,15.76
2022-12-18T11:40:40.861Z,15.64
2022-12-18T11:42:10.259Z,15.75
2022-12-18T11:43:21.887Z,15.77
2022-12-18T11:44:39.277Z,15.76
2022-12-18T11:45:49.814Z,15.71
2022-12-18T11:47:00.332Z,15.75
2022-12-18T11:48:22.781Z,15.76
2022-12-18T11:49:33.990Z,15.77
2022-12-18T11:50:38.576Z,15.75
2022-12-18T11:51:51.024Z,15.70
2022-12-18T11:52:58.175Z,15.74
2022-12-18T11:54:03.086Z,15.65
2022-12-18T11:55:17.841Z,15.73
2022-12-18T11:56:44.368Z,15.78
2022-12-18T11:58:04.040Z,15.79
2022-12-18T11:59:32.731Z,15.81
2022-12-18T12:00:40.811Z,15.79
2022-12-18T12:02:10.564Z,15.79
2022-12-18T12:03:15.459Z,15.78
2022-12-18T12:04:33.070Z,15.72
2022-12-18T12:05:59.667Z,15.76
2022-12-18T12:07:16.658Z,15.77
2022-12-18T12:08:40.410Z,15.80
2022-12-18T12:10:17.508Z,15.85
2022-12-18T12:11:53.304Z,15.84
2022-12-18T12:13:07.000Z,15.81
2022-12-18T12:14:30.596Z,15.78
2022-12-18T12:15:58.274Z,15.80
2022-12-18T12:17:10.881Z,15.78
2022-12-18T12:18:31.281Z,15.77
2022-12-18T12:20:09.732Z,15.83
2022-12-18T12:21:13.290Z,15.60
2022-12-18T12:22:34.737Z,15.79
2022-12-18T12:23:46.426Z,15.75
2022-12-18T12:24:54.357Z,15.76
2022-12-18T12:26:11.445Z,15.74
2022-12-18T12:27:37.908Z,15.74
2022-12-18T12:28:58.484Z,15.77
2022-12-18T12:30:21.578Z,15.79
2022-12-18T12:31:32.392Z,15.76
2022-12-18T12:33:08.233Z,15.78
2022-12-18T12:34:23.965Z,15.78
2022-12-18T12:36:05.471Z,15.79
2022-12-18T12:37:22.171Z,15.80
2022-12-18T12:38:29.671Z,15.78
2022-12-18T12:39:39.118Z,15.74
2022-12-18T12:40:58.604Z,15.69
2022-12-18T12:42:23.730Z,15.75
2022-12-18T12:43:33.918Z,15.76
2022-12-18T12:44:43.727Z,15.75
2022-12-18T12:46:13.073Z,15.75
2022-12-18T12:47:24.106Z,15.76
2022-12-18T12:48:38.911Z,15.76
2022-12-18T12:49:41.581Z,15.76
2022-12-18T12:50:47.901Z,15.74
2022-12-18T12:52:13.496Z,15.72
2022-12-18T12:53:30.227Z,15.76
2022-12-18T12:54:33.867Z,15.75
2022-12-18T12:55:36.424Z,15.73
2022-12-18T12:56:52.092Z,15.72
2022-12-18T12:58:15.541Z,15.73
2022-12-18T12:59:29.079Z,15.76
2022-12-18T13:00:42.253Z,15.73
2022-12-18T13:02:05.777Z,15.79
2022-12-18T13:03:24.804Z,15.79
2022-12-18T13:04:41.022Z,15.76
2022-12-18T13:05:55.150Z,15.78
2022-12-18T13:07:05.674Z,15.77
2022-12-18T13:08:11.252Z,15.74
2022-12-18T13:09:14.077Z,15.74
2022-12-18T13:10:22.297Z,15.71
2022-12-18T13:12:04.170Z,15.76
2022-12-18T13:13:10.481Z,15.78
2022-12-18T13:14:23.581Z,15.76
2022-12-18T13:15:46.121Z,15.76
2022-12-18T13:16:48.602Z,15.78
2022-12-18T13:18:13.018Z,15.69
2022-12-18T13:19:26.451Z,15.78
2022-12-18T13:20:35.963Z,15.76
2022-12-18T13:21:38.197Z,15.76
2022-12-18T13:22:45.297Z,15.71
2022-12-18T13:23:47.228Z,15.72
2022-12-18T13:24:49.406Z,15.65
2022-12-18T13:25:53.594Z,15.70
2022-12-18T13:26:55.500Z,15.71
2022-12-18T13:28:16.372Z,15.70
2022-12-18T13:29:44.316Z,15.78
2022-12-18T13:30:55.881Z,15.79
2022-12-18T13:32:01.561Z,15.79
2022-12-18T13:33:15.564Z,15.77
2022-12-18T13:34:27.994Z,15.75
2022-12-18T13:35:39.378Z,15.77
2022-12-18T13:36:41.277Z,15.77
2022-12-18T13:37:45.366Z,15.75
2022-12-18T13:38:47.769Z,15.75
2022-12-18T13:39:49.534Z,15.69
2022-12-18T13:40:51.471Z,15.75
2022-12-18T13:42:34.929Z,15.71
2022-12-18T13:43:46.162Z,15.85
2022-12-18T13:44:48.726Z,15.84
2022-12-18T13:45:59.956Z,15.83
2022-12-18T13:47:04.150Z,15.82
2022-12-18T13:48:15.570Z,15.81
2022-12-18T13:49:33.274Z,15.84
2022-12-18T13:50:36.491Z,15.84
2022-12-18T13:52:00.970Z,15.80
2022-12-18T13:53:06.155Z,15.86
2022-12-18T13:54:25.745Z,15.86
2022-12-18T13:55:27.789Z,15.87
2022-12-18T13:56:35.137Z,15.85
2022-12-18T13:57:39.432Z,15.84
2022-12-18T13:58:41.797Z,15.83
2022-12-18T13:59:43.854Z,15.84
2022-12-18T14:00:45.869Z,15.83
2022-12-18T14:01:51.596Z,15.83
2022-12-18T14:02:53.734Z,15.72
2022-12-18T14:04:19.255Z,15.81
2022-12-18T14:05:24.940Z,15.89
2022-12-18T14:06:26.708Z,15.89
2022-12-18T14:07:33.109Z,15.79
2022-12-18T14:08:42.698Z,15.87
2022-12-18T14:09:50.270Z,15.80
2022-12-18T14:10:53.361Z,15.88
2022-12-18T14:12:16.561Z,15.87
2022-12-18T14:13:40.749Z,15.95
2022-12-18T14:14:46.230Z,15.84
2022-12-18T14:15:49.967Z,15.92
2022-12-18T14:16:51.807Z,15.91
2022-12-18T14:18:03.586Z,15.88
2022-12-18T14:19:15.719Z,15.89
2022-12-18T14:20:18.838Z,15.84
2022-12-18T14:21:29.277Z,15.91
2022-12-18T14:22:31.974Z,15.91
2022-12-18T14:23:35.433Z,15.90
2022-12-18T14:24:37.265Z,15.89
2022-12-18T14:25:39.094Z,15.90
2022-12-18T14:26:41.222Z,15.89
2022-12-18T14:27:49.319Z,15.88
2022-12-18T14:28:51.309Z,15.90
2022-12-18T14:29:53.109Z,15.90